Time;durP1;ratioP1;P1;durP2;ratioP2;P2;SDS_P1;SDS_P2;PMS_P1;PMS_P2;Temp;Humidity;BMP_temperature;BMP_pressure;BME280_temperature;BME280_humidity;BME280_pressure;Samples;Min_cycle;Max_cycle;Signal;HPM_P1;HPM_P2
2022/09/09 00:01:16;;;;;;;6.57;4.80;;;16.50;99.90;;;;;;5120416;28;20528;-52
2022/09/09 00:03:52;;;;;;;7.83;5.87;;;16.50;99.90;;;;;;5119934;28;20434;-46
2022/09/09 00:06:25;;;;;;;6.20;5.10;;;16.50;99.90;;;;;;5119655;28;20421;-51
2022/09/09 00:09:00;;;;;;;10.30;7.77;;;16.40;99.90;;;;;;5119384;28;20528;-48
2022/09/09 00:11:36;;;;;;;7.10;5.10;;;16.40;99.90;;;;;;5119655;28;20479;-50
2022/09/09 00:14:14;;;;;;;5.33;4.60;;;16.40;99.90;;;;;;5119582;28;20460;-40
2022/09/09 00:16:44;;;;;;;8.03;5.80;;;16.40;99.90;;;;;;5119553;28;20427;-52
2022/09/09 00:19:20;;;;;;;8.40;6.50;;;16.40;99.90;;;;;;5119341;28;20469;-43
2022/09/09 00:22:05;;;;;;;5.53;4.93;;;16.30;99.90;;;;;;5119218;28;20479;-43
2022/09/09 00:24:39;;;;;;;7.40;5.47;;;16.40;99.90;;;;;;5119395;28;20453;-42
2022/09/09 00:27:14;;;;;;;7.23;6.53;;;16.30;99.90;;;;;;5119314;28;20454;-44
2022/09/09 00:29:46;;;;;;;8.83;6.30;;;16.30;99.90;;;;;;5119317;28;20449;-43
2022/09/09 00:32:15;;;;;;;12.07;6.80;;;16.20;99.90;;;;;;5118834;28;20457;-45
2022/09/09 00:34:49;;;;;;;6.10;4.93;;;16.20;99.90;;;;;;5119157;28;20441;-42
2022/09/09 00:37:20;;;;;;;7.10;5.40;;;16.20;99.90;;;;;;5118519;28;20422;-39
2022/09/09 00:39:48;;;;;;;6.13;4.77;;;16.20;99.90;;;;;;5118932;28;20430;-47
2022/09/09 00:42:18;;;;;;;7.60;5.50;;;16.30;99.90;;;;;;5118845;28;20464;-44
2022/09/09 00:44:59;;;;;;;7.10;5.60;;;16.30;99.90;;;;;;5118729;28;20441;-42
2022/09/09 00:47:44;;;;;;;10.33;6.30;;;16.20;99.90;;;;;;5118386;28;20469;-49
2022/09/09 00:50:26;;;;;;;6.37;4.73;;;16.20;99.90;;;;;;5118574;28;20471;-51
2022/09/09 00:53:03;;;;;;;5.40;4.90;;;16.20;99.90;;;;;;5119077;28;20484;-41
2022/09/09 00:55:49;;;;;;;7.90;5.30;;;16.10;99.90;;;;;;5119300;28;20493;-41
2022/09/09 00:58:16;;;;;;;8.47;5.07;;;16.20;99.90;;;;;;5119045;28;20465;-50
2022/09/09 01:00:48;;;;;;;6.77;5.00;;;16.10;99.90;;;;;;5118911;28;20513;-50
2022/09/09 01:03:30;;;;;;;5.33;4.80;;;16.10;99.90;;;;;;5118871;28;20448;-43
2022/09/09 01:06:14;;;;;;;7.80;5.47;;;16.10;99.90;;;;;;5119000;28;20444;-50
2022/09/09 01:09:02;;;;;;;7.43;5.27;;;16.10;99.90;;;;;;5118684;28;20410;-50
2022/09/09 01:11:37;;;;;;;7.10;5.43;;;16.10;99.90;;;;;;5118754;28;20531;-49
2022/09/09 01:14:14;;;;;;;5.20;4.40;;;16.00;99.90;;;;;;5118410;28;20425;-47
2022/09/09 01:16:43;;;;;;;7.60;5.00;;;16.00;99.90;;;;;;5118231;28;20440;-48
2022/09/09 01:19:18;;;;;;;5.73;4.40;;;16.00;99.90;;;;;;5118245;28;20750;-42
2022/09/09 01:21:51;;;;;;;8.20;5.40;;;16.00;99.90;;;;;;5118194;28;20413;-43
2022/09/09 01:24:27;;;;;;;6.23;4.60;;;16.00;99.90;;;;;;5118238;28;20445;-43
2022/09/09 01:27:10;;;;;;;6.30;5.10;;;16.00;99.90;;;;;;5118048;28;20472;-42
2022/09/09 01:29:39;;;;;;;6.63;4.97;;;15.90;99.90;;;;;;5118057;28;20493;-46
2022/09/09 01:32:40;;;;;;;6.30;4.87;;;16.00;99.90;;;;;;5117850;28;20484;-44
2022/09/09 01:35:10;;;;;;;6.27;4.20;;;16.00;99.90;;;;;;5118020;28;20425;-45
2022/09/09 01:37:37;;;;;;;5.00;3.83;;;16.00;99.90;;;;;;5117915;28;20460;-46
2022/09/09 01:40:04;;;;;;;6.43;4.90;;;16.00;99.90;;;;;;5118192;28;20438;-44
2022/09/09 01:42:33;;;;;;;6.43;4.40;;;16.00;99.90;;;;;;5117937;28;20508;-43
2022/09/09 01:44:59;;;;;;;6.27;5.10;;;16.00;99.90;;;;;;5117641;28;20498;-51
2022/09/09 01:47:28;;;;;;;5.67;4.10;;;16.00;99.90;;;;;;5117383;28;20510;-41
2022/09/09 01:49:55;;;;;;;6.03;4.30;;;15.90;99.90;;;;;;5117556;28;20418;-54
2022/09/09 01:52:22;;;;;;;5.67;4.53;;;15.90;99.90;;;;;;5117942;28;20503;-44
2022/09/09 01:54:49;;;;;;;9.03;5.20;;;15.90;99.90;;;;;;5117858;28;20483;-53
2022/09/09 01:57:32;;;;;;;8.80;4.43;;;15.80;99.90;;;;;;5117595;28;20497;-50
2022/09/09 02:00:07;;;;;;;6.70;4.47;;;15.90;99.90;;;;;;5118151;28;20477;-45
2022/09/09 02:02:39;;;;;;;5.57;4.43;;;15.80;99.90;;;;;;5117835;28;20448;-53
2022/09/09 02:05:28;;;;;;;6.60;4.60;;;15.80;99.90;;;;;;5116997;28;20468;-51
2022/09/09 02:08:01;;;;;;;5.27;4.37;;;15.90;99.90;;;;;;5117339;28;20437;-43
2022/09/09 02:10:33;;;;;;;6.60;5.17;;;15.80;99.90;;;;;;5116996;28;20462;-45
2022/09/09 02:13:05;;;;;;;7.40;5.00;;;15.80;99.90;;;;;;5116949;28;20468;-44
2022/09/09 02:15:36;;;;;;;7.30;4.57;;;15.70;99.90;;;;;;5116899;28;20489;-51
2022/09/09 02:18:08;;;;;;;8.97;5.23;;;15.70;99.90;;;;;;5116870;28;20434;-53
2022/09/09 02:20:37;;;;;;;5.83;4.90;;;15.70;99.90;;;;;;5116649;28;20410;-42
2022/09/09 02:23:06;;;;;;;5.10;4.40;;;15.70;99.90;;;;;;5117438;28;20457;-40
2022/09/09 02:25:36;;;;;;;5.47;4.50;;;15.70;99.90;;;;;;5117849;28;20451;-39
2022/09/09 02:28:16;;;;;;;;;;;;;;;;;;;;;
2022/09/09 02:30:46;;;;;;;7.47;4.70;;;15.70;99.90;;;;;;5111997;28;20449;-43
2022/09/09 02:33:15;;;;;;;5.33;4.80;;;15.70;99.90;;;;;;5117226;28;20540;-38
2022/09/09 02:35:44;;;;;;;5.67;5.07;;;15.80;99.90;;;;;;5117224;28;20456;-41
2022/09/09 02:38:14;;;;;;;6.33;4.97;;;15.70;99.90;;;;;;5116936;28;20450;-39
2022/09/09 02:40:41;;;;;;;5.70;3.70;;;15.70;99.90;;;;;;5117324;28;20425;-43
2022/09/09 02:43:08;;;;;;;5.50;3.93;;;15.70;99.90;;;;;;5116882;28;20506;-43
2022/09/09 02:45:43;;;;;;;6.03;4.20;;;15.60;99.90;;;;;;5117186;28;20414;-41
2022/09/09 02:48:18;;;;;;;7.43;5.03;;;15.60;99.90;;;;;;5116943;28;20421;-45
2022/09/09 02:50:55;;;;;;;5.30;3.90;;;15.60;99.90;;;;;;5117304;28;20498;-48
2022/09/09 02:53:25;;;;;;;5.27;4.10;;;15.60;99.90;;;;;;5117006;28;20481;-40
2022/09/09 02:55:59;;;;;;;6.00;5.17;;;15.50;99.90;;;;;;5116653;28;20501;-45
2022/09/09 02:58:26;;;;;;;6.80;4.03;;;15.50;99.90;;;;;;5117004;28;20490;-43
2022/09/09 03:00:53;;;;;;;10.00;5.40;;;15.50;99.90;;;;;;5116380;28;20455;-48
2022/09/09 03:03:21;;;;;;;5.43;4.80;;;15.50;99.90;;;;;;5116455;28;20440;-44
2022/09/09 03:05:49;;;;;;;5.30;4.53;;;15.50;99.90;;;;;;5116281;28;20580;-37
2022/09/09 03:08:16;;;;;;;5.80;4.50;;;15.50;99.90;;;;;;5116421;28;20446;-42
2022/09/09 03:10:43;;;;;;;5.73;4.80;;;15.50;99.90;;;;;;5116212;28;20437;-45
2022/09/09 03:13:10;;;;;;;5.43;4.30;;;15.40;99.90;;;;;;5116361;28;20487;-43
2022/09/09 03:15:37;;;;;;;5.70;4.40;;;15.40;99.90;;;;;;5116246;28;20800;-42
2022/09/09 03:18:04;;;;;;;6.03;4.20;;;15.40;99.90;;;;;;5116341;28;20473;-42
2022/09/09 03:20:32;;;;;;;6.73;5.00;;;15.40;99.90;;;;;;5149797;22;20485;-49
2022/09/09 03:23:01;;;;;;;5.63;4.47;;;15.40;99.90;;;;;;5095013;28;20454;-46
2022/09/09 03:25:28;;;;;;;5.57;3.83;;;15.40;99.90;;;;;;5094609;28;20442;-53
2022/09/09 03:27:56;;;;;;;12.33;3.87;;;15.40;99.90;;;;;;5094418;28;20534;-50
2022/09/09 03:30:22;;;;;;;5.50;3.97;;;15.40;99.90;;;;;;5095136;28;20415;-42
2022/09/09 03:33:05;;;;;;;6.27;3.67;;;15.40;99.90;;;;;;5094993;28;20478;-39
2022/09/09 03:35:33;;;;;;;6.57;4.80;;;15.40;99.90;;;;;;5095383;28;20418;-50
2022/09/09 03:38:00;;;;;;;6.63;5.17;;;15.40;99.90;;;;;;5095090;28;20473;-45
2022/09/09 03:40:27;;;;;;;5.90;4.30;;;15.40;99.90;;;;;;5095213;28;20426;-46
2022/09/09 03:42:54;;;;;;;4.90;4.23;;;15.30;99.90;;;;;;5094658;28;20446;-49
2022/09/09 03:45:20;;;;;;;5.50;4.57;;;15.30;99.90;;;;;;5094634;28;20446;-44
2022/09/09 03:47:49;;;;;;;6.10;5.00;;;15.30;99.90;;;;;;5093774;28;20454;-45
2022/09/09 03:50:18;;;;;;;6.40;5.07;;;15.30;99.90;;;;;;5094330;28;20466;-45
2022/09/09 03:52:46;;;;;;;5.23;4.30;;;15.30;99.90;;;;;;5093948;28;20462;-44
2022/09/09 03:55:13;;;;;;;5.00;4.30;;;15.30;99.90;;;;;;5093978;28;20450;-44
2022/09/09 03:57:40;;;;;;;7.63;4.83;;;15.30;99.90;;;;;;5093905;28;20438;-49
2022/09/09 04:00:08;;;;;;;5.63;5.07;;;15.20;99.90;;;;;;5093989;28;20450;-46
2022/09/09 04:02:35;;;;;;;5.77;4.00;;;15.20;99.90;;;;;;5094152;28;20462;-50
2022/09/09 04:05:02;;;;;;;7.37;5.23;;;15.20;99.90;;;;;;5094401;28;20549;-45
2022/09/09 04:07:28;;;;;;;5.20;4.10;;;15.20;99.90;;;;;;5094433;28;20538;-46
2022/09/09 04:09:56;;;;;;;4.80;4.30;;;15.20;99.90;;;;;;5094337;28;20428;-49
2022/09/09 04:12:23;;;;;;;4.97;4.03;;;15.20;99.90;;;;;;5096171;28;20474;-50
2022/09/09 04:14:50;;;;;;;6.13;3.77;;;15.10;99.90;;;;;;5097702;28;20505;-44
2022/09/09 04:17:18;;;;;;;5.40;4.30;;;15.10;99.90;;;;;;5097377;28;20646;-45
2022/09/09 04:19:48;;;;;;;6.40;4.50;;;15.20;99.90;;;;;;5097843;28;20438;-55
2022/09/09 04:22:15;;;;;;;6.10;3.70;;;15.20;99.90;;;;;;5097184;28;20522;-46
2022/09/09 04:24:42;;;;;;;6.17;4.33;;;15.20;99.90;;;;;;5097287;28;20454;-50
2022/09/09 04:27:12;;;;;;;4.33;3.23;;;15.10;99.90;;;;;;5097348;28;20449;-53
2022/09/09 04:29:39;;;;;;;3.97;3.53;;;15.10;99.90;;;;;;5097637;28;20485;-43
2022/09/09 04:32:06;;;;;;;6.63;4.23;;;15.20;99.90;;;;;;5096934;28;20457;-48
2022/09/09 04:34:32;;;;;;;6.63;4.93;;;15.10;99.90;;;;;;5097209;28;20466;-49
2022/09/09 04:37:00;;;;;;;5.77;3.97;;;15.20;99.90;;;;;;5096984;28;20509;-48
2022/09/09 04:39:27;;;;;;;5.03;4.17;;;15.10;99.90;;;;;;5097350;28;20446;-40
2022/09/09 04:41:53;;;;;;;7.00;3.60;;;15.20;99.90;;;;;;5097754;28;20427;-56
2022/09/09 04:44:22;;;;;;;4.47;3.47;;;15.20;99.90;;;;;;5096739;28;20480;-50
2022/09/09 04:46:48;;;;;;;5.30;4.57;;;15.20;99.90;;;;;;5097295;28;20473;-55
2022/09/09 04:49:15;;;;;;;5.80;4.33;;;15.20;99.90;;;;;;5097237;28;20429;-45
2022/09/09 04:51:42;;;;;;;4.90;3.30;;;15.20;99.90;;;;;;5096862;28;20453;-44
2022/09/09 04:54:10;;;;;;;4.90;3.40;;;15.20;99.90;;;;;;5096773;28;20466;-46
2022/09/09 04:56:36;;;;;;;5.00;4.10;;;15.30;99.90;;;;;;5096824;28;20454;-50
2022/09/09 04:59:04;;;;;;;6.90;4.10;;;15.30;99.90;;;;;;5096990;28;20427;-41
2022/09/09 05:01:32;;;;;;;4.10;3.50;;;15.30;99.90;;;;;;5096119;28;20482;-51
2022/09/09 05:03:58;;;;;;;7.83;3.93;;;15.30;99.90;;;;;;5096526;28;20441;-50
2022/09/09 05:06:25;;;;;;;5.10;4.20;;;15.30;99.90;;;;;;5096613;28;20443;-54
2022/09/09 05:08:52;;;;;;;5.10;3.70;;;15.30;99.90;;;;;;5096907;28;20466;-43
2022/09/09 05:11:23;;;;;;;5.53;4.30;;;15.30;99.90;;;;;;5096256;28;20447;-46
2022/09/09 05:13:50;;;;;;;5.30;4.00;;;15.30;99.90;;;;;;5096175;28;20497;-49
2022/09/09 05:16:21;;;;;;;4.03;3.63;;;15.30;99.90;;;;;;5096232;28;20473;-42
2022/09/09 05:18:50;;;;;;;6.20;4.07;;;15.30;99.90;;;;;;5096587;28;20460;-46
2022/09/09 05:21:18;;;;;;;7.50;3.40;;;15.30;99.90;;;;;;5096501;28;20446;-40
2022/09/09 05:23:46;;;;;;;4.17;2.93;;;15.40;99.90;;;;;;5096038;28;20435;-45
2022/09/09 05:26:15;;;;;;;3.80;3.43;;;15.40;99.90;;;;;;5096583;28;20422;-46
2022/09/09 05:28:42;;;;;;;4.60;3.83;;;15.50;99.90;;;;;;5096455;28;20450;-41
2022/09/09 05:31:11;;;;;;;4.10;3.70;;;15.50;99.90;;;;;;5095880;28;20530;-46
2022/09/09 05:33:40;;;;;;;5.40;3.87;;;15.50;99.90;;;;;;5096098;28;20478;-53
2022/09/09 05:36:10;;;;;;;6.03;3.80;;;15.60;99.90;;;;;;5096411;28;20459;-50
2022/09/09 05:38:37;;;;;;;4.70;3.43;;;15.60;99.90;;;;;;5096062;28;20426;-50
2022/09/09 05:41:04;;;;;;;4.10;3.70;;;15.60;99.90;;;;;;5095682;28;20466;-47
2022/09/09 05:43:32;;;;;;;6.63;3.93;;;15.60;99.90;;;;;;5095972;28;20432;-47
2022/09/09 05:46:04;;;;;;;4.53;3.40;;;15.70;99.90;;;;;;5095888;28;20457;-53
2022/09/09 05:48:31;;;;;;;6.53;3.60;;;15.70;99.90;;;;;;5095462;28;20448;-50
2022/09/09 05:50:58;;;;;;;4.53;3.60;;;15.70;99.90;;;;;;5095506;28;20439;-49
2022/09/09 05:53:27;;;;;;;3.83;3.17;;;15.80;99.90;;;;;;5095904;28;20482;-50
2022/09/09 05:56:03;;;;;;;11.20;3.50;;;15.70;99.90;;;;;;5095334;28;20509;-45
2022/09/09 05:58:30;;;;;;;5.33;3.80;;;15.80;99.90;;;;;;5095278;28;20489;-44
2022/09/09 06:01:02;;;;;;;4.80;3.10;;;15.80;99.90;;;;;;5095740;28;20464;-46
2022/09/09 06:03:29;;;;;;;4.23;2.83;;;15.80;99.90;;;;;;5095196;28;20466;-46
2022/09/09 06:05:59;;;;;;;2.70;2.27;;;15.80;99.90;;;;;;5095097;28;20423;-51
2022/09/09 06:08:28;;;;;;;6.13;3.63;;;15.80;99.90;;;;;;5080207;28;20442;-51
2022/09/09 06:11:02;;;;;;;3.00;2.57;;;15.80;99.90;;;;;;5077951;28;20464;-44
2022/09/09 06:13:29;;;;;;;4.40;3.43;;;15.90;99.90;;;;;;5080746;28;20458;-50
2022/09/09 06:15:56;;;;;;;3.73;2.90;;;15.90;99.90;;;;;;5075376;28;20446;-54
2022/09/09 06:18:23;;;;;;;3.10;2.70;;;15.90;99.90;;;;;;5076784;28;20447;-54
2022/09/09 06:20:57;;;;;;;5.50;3.40;;;15.90;99.90;;;;;;5077266;28;20478;-52
2022/09/09 06:23:25;;;;;;;3.67;3.37;;;16.00;99.90;;;;;;5078440;28;20442;-51
2022/09/09 06:26:01;;;;;;;3.47;2.90;;;16.00;99.90;;;;;;5078641;28;20474;-55
2022/09/09 06:28:28;;;;;;;5.63;2.70;;;16.10;99.90;;;;;;5076061;28;20442;-47
2022/09/09 06:30:59;;;;;;;7.83;2.57;;;16.10;99.90;;;;;;5076524;28;20443;-48
2022/09/09 06:33:26;;;;;;;3.30;2.60;;;16.30;99.90;;;;;;5076501;28;20482;-50
2022/09/09 06:35:53;;;;;;;3.43;2.60;;;16.30;99.90;;;;;;5076066;28;20450;-53
2022/09/09 06:38:21;;;;;;;2.83;2.20;;;16.40;99.90;;;;;;5076684;28;20458;-55
2022/09/09 06:40:54;;;;;;;5.40;2.70;;;16.50;99.90;;;;;;5076612;28;20450;-52
2022/09/09 06:43:21;;;;;;;11.73;2.77;;;16.70;99.90;;;;;;5097887;28;20446;-33
2022/09/09 06:45:54;;;;;;;3.17;2.63;;;16.80;99.90;;;;;;5095263;28;20431;-54
2022/09/09 06:48:21;;;;;;;2.20;2.00;;;16.90;99.90;;;;;;5072344;28;20438;-52
2022/09/09 06:50:49;;;;;;;5.30;2.57;;;17.00;99.90;;;;;;5061142;28;20471;-47
2022/09/09 06:53:18;;;;;;;3.10;2.80;;;17.10;99.90;;;;;;5066396;28;20492;-49
2022/09/09 06:55:46;;;;;;;5.17;2.33;;;17.20;99.90;;;;;;5062714;28;20482;-48
2022/09/09 06:58:14;;;;;;;2.87;2.27;;;17.20;99.90;;;;;;5073071;28;20446;-46
2022/09/09 07:00:41;;;;;;;2.83;2.53;;;17.20;99.90;;;;;;5062337;28;20451;-55
2022/09/09 07:03:07;;;;;;;2.33;2.13;;;17.20;99.90;;;;;;5066411;28;20498;-54
2022/09/09 07:05:34;;;;;;;4.53;2.80;;;17.20;99.90;;;;;;5067983;28;20450;-52
2022/09/09 07:08:02;;;;;;;3.90;2.60;;;17.20;99.90;;;;;;5072070;28;20562;-49
2022/09/09 07:10:28;;;;;;;2.63;2.43;;;17.20;99.90;;;;;;5058692;28;20434;-48
2022/09/09 07:12:57;;;;;;;5.47;2.70;;;17.30;99.90;;;;;;5089518;28;20422;-34
2022/09/09 07:15:26;;;;;;;3.93;2.30;;;17.40;99.90;;;;;;5075004;28;20424;-52
2022/09/09 07:17:53;;;;;;;3.30;2.63;;;17.40;99.90;;;;;;5054485;28;20463;-48
2022/09/09 07:20:20;;;;;;;3.90;2.37;;;17.50;99.90;;;;;;5070697;28;20538;-52
2022/09/09 07:22:47;;;;;;;5.30;2.97;;;17.60;99.90;;;;;;5062530;28;20783;-50
2022/09/09 07:25:16;;;;;;;2.30;2.10;;;17.60;99.90;;;;;;5071669;28;20475;-54
2022/09/09 07:27:43;;;;;;;2.73;2.30;;;17.70;99.90;;;;;;5066667;28;20471;-49
2022/09/09 07:30:11;;;;;;;2.10;1.87;;;17.80;99.90;;;;;;5067585;28;20458;-50
2022/09/09 07:32:39;;;;;;;4.03;2.50;;;17.80;99.90;;;;;;5064865;28;20435;-52
2022/09/09 07:35:07;;;;;;;6.80;2.57;;;17.90;99.90;;;;;;5069027;28;21012;-49
2022/09/09 07:37:37;;;;;;;2.80;2.57;;;18.00;99.90;;;;;;5074594;28;20500;-45
2022/09/09 07:40:05;;;;;;;3.50;2.07;;;18.10;99.90;;;;;;5056857;28;20451;-48
2022/09/09 07:42:32;;;;;;;2.83;1.70;;;18.20;99.90;;;;;;5055565;28;20871;-51
2022/09/09 07:44:59;;;;;;;5.83;2.30;;;18.30;99.90;;;;;;5071782;28;20442;-52
2022/09/09 07:47:26;;;;;;;3.23;2.53;;;18.50;99.90;;;;;;5070961;28;20466;-49
2022/09/09 07:49:54;;;;;;;2.33;2.10;;;18.60;99.90;;;;;;5064767;28;20496;-50
2022/09/09 07:52:21;;;;;;;3.50;2.27;;;18.70;99.90;;;;;;5074482;28;20474;-52
2022/09/09 07:54:48;;;;;;;3.83;2.17;;;18.80;99.90;;;;;;5064989;28;20574;-53
2022/09/09 07:57:15;;;;;;;4.00;2.33;;;19.00;99.90;;;;;;5058856;28;20538;-55
2022/09/09 07:59:42;;;;;;;2.07;1.87;;;19.20;99.90;;;;;;5058538;28;20459;-55
2022/09/09 08:02:10;;;;;;;2.37;2.13;;;19.30;99.90;;;;;;5058107;28;20889;-50
2022/09/09 08:04:36;;;;;;;2.27;1.97;;;19.50;99.90;;;;;;5058473;28;20459;-50
2022/09/09 08:07:05;;;;;;;3.17;2.23;;;19.60;99.90;;;;;;5057950;28;20447;-53
2022/09/09 08:09:33;;;;;;;3.07;1.70;;;19.90;99.90;;;;;;5058191;28;20475;-49
2022/09/09 08:12:00;;;;;;;4.03;2.00;;;20.50;99.90;;;;;;5058012;28;20526;-50
2022/09/09 08:14:27;;;;;;;2.70;2.40;;;22.10;99.90;;;;;;5057442;28;20540;-52
2022/09/09 08:16:54;;;;;;;4.40;3.90;;;23.70;99.90;;;;;;5057743;28;20455;-48
2022/09/09 08:19:21;;;;;;;2.00;1.83;;;24.70;99.90;;;;;;5057493;28;20860;-52
2022/09/09 08:21:48;;;;;;;2.33;2.13;;;24.70;99.90;;;;;;5057501;28;20481;-55
2022/09/09 08:24:20;;;;;;;3.37;2.20;;;24.60;99.90;;;;;;5057707;28;20910;-51
2022/09/09 08:26:49;;;;;;;2.63;1.80;;;24.30;99.90;;;;;;5057769;28;20442;-52
2022/09/09 08:29:16;;;;;;;2.13;1.87;;;24.00;99.90;;;;;;5057651;28;20534;-49
2022/09/09 08:31:45;;;;;;;3.10;2.17;;;23.60;99.90;;;;;;5057087;28;20932;-54
2022/09/09 08:34:12;;;;;;;2.03;1.83;;;23.20;99.90;;;;;;5057597;28;20490;-51
2022/09/09 08:36:42;;;;;;;3.53;2.10;;;23.00;99.90;;;;;;5057426;28;20486;-51
2022/09/09 08:39:10;;;;;;;4.20;2.00;;;23.00;99.90;;;;;;5056995;28;20915;-51
2022/09/09 08:42:00;;;;;;;4.90;1.90;;;23.00;99.90;;;;;;5057356;28;20447;-46
2022/09/09 08:44:38;;;;;;;4.63;2.00;;;22.80;99.90;;;;;;5053752;28;20450;-53
2022/09/09 08:47:16;;;;;;;2.40;1.87;;;22.50;99.90;;;;;;5057058;28;20439;-52
2022/09/09 08:50:05;;;;;;;4.40;2.00;;;22.30;99.90;;;;;;5057126;28;20530;-52
2022/09/09 08:52:39;;;;;;;2.33;1.90;;;21.90;99.90;;;;;;5057453;28;20444;-51
2022/09/09 08:55:21;;;;;;;2.43;2.23;;;21.60;99.90;;;;;;5056929;28;20476;-54
2022/09/09 08:57:51;;;;;;;2.40;1.90;;;21.40;99.90;;;;;;5056336;28;20442;-51
2022/09/09 09:00:19;;;;;;;3.67;1.87;;;21.20;99.90;;;;;;5057259;28;20842;-57
2022/09/09 09:02:56;;;;;;;3.07;1.87;;;21.10;99.90;;;;;;5057099;28;20896;-46
2022/09/09 09:05:32;;;;;;;3.73;1.73;;;21.40;99.90;;;;;;5057089;28;20543;-52
2022/09/09 09:08:12;;;;;;;3.73;1.97;;;21.70;99.90;;;;;;5056867;28;20423;-49
2022/09/09 09:10:47;;;;;;;4.80;1.87;;;22.10;99.90;;;;;;5057142;28;20471;-49
2022/09/09 09:13:21;;;;;;;3.30;1.80;;;22.70;99.90;;;;;;5056950;28;20427;-51
2022/09/09 09:15:53;;;;;;;2.17;1.70;;;24.10;99.90;;;;;;5056389;28;20495;-51
2022/09/09 09:18:20;;;;;;;3.80;1.83;;;25.00;99.90;;;;;;5056803;28;20751;-48
2022/09/09 09:20:58;;;;;;;1.60;1.40;;;25.60;99.90;;;;;;5056427;28;21062;-48
2022/09/09 09:23:35;;;;;;;2.03;1.33;;;25.90;99.90;;;;;;5056412;28;20455;-52
2022/09/09 09:26:02;;;;;;;5.77;1.87;;;26.30;99.90;;;;;;5056545;28;20435;-51
2022/09/09 09:28:32;;;;;;;5.93;1.80;;;27.10;99.90;;;;;;5056293;28;20474;-55
2022/09/09 09:31:04;;;;;;;2.00;1.70;;;28.10;99.90;;;;;;5056396;28;20454;-50
2022/09/09 09:33:40;;;;;;;2.60;1.70;;;28.90;99.90;;;;;;5056244;28;20439;-51
2022/09/09 09:36:08;;;;;;;4.00;2.00;;;29.50;99.60;;;;;;5056295;28;20592;-52
2022/09/09 09:38:36;;;;;;;3.37;1.53;;;30.10;97.60;;;;;;5056344;28;20493;-57
2022/09/09 09:41:03;;;;;;;3.80;1.70;;;30.60;94.00;;;;;;5056202;28;20473;-53
2022/09/09 09:43:33;;;;;;;3.10;1.60;;;30.90;91.10;;;;;;5056159;28;20471;-55
2022/09/09 09:46:00;;;;;;;4.33;1.53;;;31.40;90.10;;;;;;5055816;28;20454;-55
2022/09/09 09:48:28;;;;;;;2.20;1.60;;;31.80;86.10;;;;;;5055654;28;20451;-55
2022/09/09 09:50:58;;;;;;;1.87;1.67;;;32.00;82.20;;;;;;5055742;28;20907;-52
2022/09/09 09:53:27;;;;;;;4.47;1.80;;;32.20;79.60;;;;;;5055957;28;20879;-54
2022/09/09 09:56:09;;;;;;;2.77;1.70;;;32.30;78.60;;;;;;5055518;28;20804;-50
2022/09/09 09:58:50;;;;;;;2.07;1.60;;;32.40;76.20;;;;;;5055603;28;20431;-54
2022/09/09 10:01:23;;;;;;;2.80;1.40;;;32.40;74.90;;;;;;5055444;28;20928;-47
2022/09/09 10:03:53;;;;;;;7.93;2.20;;;32.30;74.70;;;;;;5055702;28;20439;-50
2022/09/09 10:06:30;;;;;;;3.27;1.60;;;32.40;74.00;;;;;;5055399;28;20971;-49
2022/09/09 10:08:57;;;;;;;4.00;1.80;;;32.40;70.80;;;;;;5054825;28;20432;-48
2022/09/09 10:11:39;;;;;;;2.20;1.63;;;31.90;71.00;;;;;;5055526;28;20475;-48
2022/09/09 10:14:19;;;;;;;3.30;1.83;;;30.80;74.20;;;;;;5055230;28;20431;-49
2022/09/09 10:17:06;;;;;;;1.83;1.60;;;29.80;78.30;;;;;;5055710;28;20482;-48
2022/09/09 10:19:35;;;;;;;3.90;2.40;;;29.30;80.60;;;;;;5055209;28;20427;-51
2022/09/09 10:22:16;;;;;;;5.33;1.70;;;29.30;81.30;;;;;;5055048;28;20483;-51
2022/09/09 10:25:15;;;;;;;3.47;1.87;;;29.30;80.30;;;;;;5055408;28;20432;-52
2022/09/09 10:28:33;;;;;;;2.30;1.60;;;28.90;82.50;;;;;;5055365;28;20570;-55
2022/09/09 10:31:15;;;;;;;3.30;1.87;;;28.90;85.30;;;;;;5052626;28;20455;-47
2022/09/09 10:33:51;;;;;;;5.57;1.83;;;29.00;84.70;;;;;;5055163;28;21000;-55
2022/09/09 10:36:21;;;;;;;2.10;1.60;;;28.80;85.00;;;;;;5054864;28;20959;-51
2022/09/09 10:38:49;;;;;;;5.80;1.90;;;28.30;87.40;;;;;;5055086;28;20471;-54
2022/09/09 10:41:25;;;;;;;2.17;1.70;;;27.80;89.90;;;;;;5054901;28;20427;-50
2022/09/09 10:44:04;;;;;;;2.10;1.83;;;27.40;90.80;;;;;;5055112;28;20427;-50
2022/09/09 10:46:43;;;;;;;3.60;1.90;;;27.10;92.70;;;;;;5054832;28;20431;-50
2022/09/09 10:49:23;;;;;;;2.50;1.80;;;26.90;93.20;;;;;;5054927;28;20435;-51
2022/09/09 10:51:58;;;;;;;9.47;2.33;;;26.90;93.60;;;;;;5055029;28;20526;-50
2022/09/09 10:54:35;;;;;;;1.63;1.30;;;26.90;95.40;;;;;;5054813;28;20466;-50
2022/09/09 10:57:09;;;;;;;6.27;1.53;;;27.00;95.40;;;;;;5054859;28;20768;-50
2022/09/09 10:59:48;;;;;;;2.60;1.40;;;27.20;95.30;;;;;;5054823;28;20431;-47
2022/09/09 11:02:22;;;;;;;4.17;1.60;;;27.50;94.90;;;;;;5054457;28;20471;-51
2022/09/09 11:04:54;;;;;;;1.90;1.67;;;27.70;95.40;;;;;;5054803;28;20428;-52
2022/09/09 11:07:29;;;;;;;2.50;1.93;;;27.70;94.80;;;;;;5054531;28;20471;-56
2022/09/09 11:10:01;;;;;;;3.20;1.70;;;27.70;94.80;;;;;;5054662;28;20435;-55
2022/09/09 11:12:29;;;;;;;2.70;1.30;;;27.50;95.10;;;;;;5054781;28;20471;-53
2022/09/09 11:15:02;;;;;;;3.00;1.60;;;27.30;95.10;;;;;;5054489;28;20479;-53
2022/09/09 11:17:37;;;;;;;2.07;1.50;;;27.10;95.20;;;;;;5054462;28;20427;-53
2022/09/09 11:20:07;;;;;;;5.93;3.53;;;27.00;96.10;;;;;;5055068;28;20431;-51
2022/09/09 11:22:38;;;;;;;5.20;1.93;;;26.70;97.00;;;;;;5058453;28;20923;-47
2022/09/09 11:25:10;;;;;;;2.20;1.47;;;26.40;97.90;;;;;;5058769;28;20419;-53
2022/09/09 11:27:44;;;;;;;2.83;1.57;;;26.20;99.30;;;;;;5058832;28;20768;-51
2022/09/09 11:30:41;;;;;;;3.90;1.33;;;25.90;99.90;;;;;;5060072;28;20481;-56
2022/09/09 11:33:57;;;;;;;4.47;1.23;;;25.60;99.50;;;;;;5059331;28;20542;-44
2022/09/09 11:36:48;;;;;;;7.57;1.53;;;25.40;99.90;;;;;;5052627;28;20594;-47
2022/09/09 11:39:43;;;;;;;3.20;1.57;;;25.50;99.90;;;;;;5058186;28;20874;-47
2022/09/09 11:42:18;;;;;;;3.33;1.40;;;25.30;99.90;;;;;;5057110;28;20465;-51
2022/09/09 11:44:45;;;;;;;1.60;1.10;;;25.30;99.90;;;;;;5058059;28;20442;-43
2022/09/09 11:47:21;;;;;;;3.43;2.37;;;25.10;99.90;;;;;;5059550;28;20471;-46
2022/09/09 11:49:49;;;;;;;2.27;1.40;;;25.00;99.90;;;;;;5059215;28;20463;-49
2022/09/09 11:52:25;;;;;;;2.00;1.50;;;25.00;99.90;;;;;;5058085;28;20481;-44
2022/09/09 11:54:53;;;;;;;2.60;1.43;;;24.90;99.90;;;;;;5058150;28;20574;-48
2022/09/09 11:57:28;;;;;;;2.77;1.40;;;24.80;99.90;;;;;;5058035;28;20552;-45
2022/09/09 11:59:56;;;;;;;2.63;1.43;;;24.70;99.90;;;;;;5057888;28;20419;-46
2022/09/09 12:02:49;;;;;;;1.73;1.30;;;24.70;99.90;;;;;;5057818;28;20664;-47
2022/09/09 12:05:19;;;;;;;2.50;1.43;;;24.60;99.90;;;;;;5058057;28;20450;-46
2022/09/09 12:07:53;;;;;;;3.07;1.70;;;24.60;99.90;;;;;;5057738;28;20812;-45
2022/09/09 12:10:24;;;;;;;1.70;1.40;;;24.70;99.90;;;;;;5057850;28;20593;-45
2022/09/09 12:12:51;;;;;;;2.53;1.13;;;24.80;99.90;;;;;;5058802;28;20467;-48
2022/09/09 12:15:25;;;;;;;4.87;2.10;;;24.90;99.90;;;;;;5058895;28;20955;-50
2022/09/09 12:17:54;;;;;;;1.83;1.13;;;25.00;99.90;;;;;;5057716;28;20823;-46
2022/09/09 12:20:24;;;;;;;2.57;1.50;;;25.00;99.90;;;;;;5057198;28;20462;-45
2022/09/09 12:23:28;;;;;;;2.10;1.40;;;24.90;99.90;;;;;;5057631;28;20435;-50
2022/09/09 12:26:24;;;;;;;2.93;1.10;;;25.00;99.90;;;;;;5058429;28;20784;-47
2022/09/09 12:29:12;;;;;;;1.47;1.20;;;24.90;99.90;;;;;;5057247;28;20530;-49
2022/09/09 12:31:45;;;;;;;2.20;1.07;;;24.80;99.90;;;;;;5056425;28;20423;-48
2022/09/09 12:34:31;;;;;;;1.80;1.60;;;24.70;99.90;;;;;;5057309;28;20443;-48
2022/09/09 12:37:05;;;;;;;3.10;1.40;;;24.70;99.90;;;;;;5057457;28;20502;-45
2022/09/09 12:39:38;;;;;;;1.30;1.20;;;24.60;99.90;;;;;;5057596;28;20446;-44
2022/09/09 12:42:05;;;;;;;2.13;1.40;;;24.60;99.90;;;;;;5057268;28;20780;-48
2022/09/09 12:44:33;;;;;;;5.47;2.40;;;24.60;99.90;;;;;;5057234;28;20453;-46
2022/09/09 12:47:03;;;;;;;2.90;2.00;;;24.60;99.90;;;;;;5056901;28;20460;-44
2022/09/09 12:49:34;;;;;;;2.03;1.83;;;24.60;99.90;;;;;;5056794;28;20483;-47
2022/09/09 12:52:05;;;;;;;2.60;1.23;;;24.50;99.90;;;;;;5056936;28;20563;-49
2022/09/09 12:54:33;;;;;;;2.20;1.50;;;24.50;99.90;;;;;;5056839;28;20432;-47
2022/09/09 12:57:00;;;;;;;2.07;1.40;;;24.40;99.90;;;;;;5056740;28;20493;-43
2022/09/09 12:59:35;;;;;;;2.60;1.13;;;24.30;99.90;;;;;;5056544;28;21008;-47
2022/09/09 13:02:02;;;;;;;5.13;2.13;;;24.30;99.90;;;;;;5056634;28;20465;-45
2022/09/09 13:04:29;;;;;;;2.13;1.23;;;24.30;99.90;;;;;;5056491;28;20467;-45
2022/09/09 13:07:13;;;;;;;1.67;1.17;;;24.30;99.90;;;;;;5058823;28;20455;-47
2022/09/09 13:09:41;;;;;;;3.17;1.37;;;24.30;99.90;;;;;;5056817;28;20471;-51
2022/09/09 13:12:14;;;;;;;2.97;1.20;;;24.30;99.90;;;;;;5056772;28;20451;-45